Time;durP1;ratioP1;P1;durP2;ratioP2;P2;SDS_P1;SDS_P2;PMS_P1;PMS_P2;Temp;Humidity;BMP_temperature;BMP_pressure;BME280_temperature;BME280_humidity;BME280_pressure;Samples;Min_cycle;Max_cycle;Signal;HPM_P1;HPM_P2
2023/02/11 06:32:28;;;;;;;26.92;18.08;;;3.70;99.90;;;;;;7419139;19;20344;-84
2023/02/11 06:36:01;;;;;;;28.88;18.83;;;3.70;99.90;;;;;;7415346;19;20308;-82
2023/02/11 06:38:35;;;;;;;25.17;18.13;;;3.80;99.90;;;;;;7357066;19;20320;-89
2023/02/11 06:41:03;;;;;;;29.50;18.35;;;3.80;99.90;;;;;;7312148;19;2003990;-92
2023/02/11 06:43:29;;;;;;;25.92;18.30;;;3.80;99.90;;;;;;7406082;19;20317;-94
2023/02/11 06:52:11;;;;;;;29.73;19.52;;;3.80;99.90;;;;;;7398695;19;20356;-91
2023/02/11 06:59:22;;;;;;;24.40;18.75;;;3.80;99.90;;;;;;7425053;19;20330;-93
2023/02/11 08:21:56;;;;;;;26.03;18.37;;;4.20;99.90;;;;;;7323661;19;20696;-84
2023/02/11 08:24:23;;;;;;;29.67;18.48;;;4.30;99.90;;;;;;7390299;19;20313;-82
2023/02/11 08:26:48;;;;;;;27.13;18.60;;;4.40;99.90;;;;;;7395673;19;21172;-86
2023/02/11 08:29:14;;;;;;;23.23;16.93;;;4.40;99.90;;;;;;7398902;19;20312;-84
2023/02/11 08:31:42;;;;;;;28.77;18.42;;;4.50;99.90;;;;;;7396333;19;20320;-86
2023/02/11 08:34:10;;;;;;;27.67;18.27;;;4.50;99.90;;;;;;7395140;19;20320;-91
2023/02/11 08:36:36;;;;;;;24.33;18.20;;;4.50;99.90;;;;;;7398303;19;20321;-86
2023/02/11 08:39:04;;;;;;;28.45;18.80;;;4.60;99.90;;;;;;7399104;19;20421;-87
2023/02/11 08:41:31;;;;;;;26.88;17.00;;;4.70;99.90;;;;;;7399819;19;20411;-84
2023/02/11 08:43:56;;;;;;;27.77;18.65;;;4.60;99.90;;;;;;7399561;19;20312;-86
2023/02/11 08:46:22;;;;;;;25.63;17.50;;;4.60;99.90;;;;;;7401191;19;20333;-88
2023/02/11 08:48:47;;;;;;;25.08;17.17;;;4.90;99.90;;;;;;7402077;19;20328;-83
2023/02/11 08:51:18;;;;;;;26.40;17.57;;;4.70;99.90;;;;;;7400966;19;20412;-80
2023/02/11 08:53:44;;;;;;;28.27;17.95;;;4.70;99.90;;;;;;7398502;19;20352;-84
2023/02/11 08:56:10;;;;;;;26.45;18.42;;;4.80;99.90;;;;;;7397863;19;20346;-85
2023/02/11 08:58:35;;;;;;;24.47;16.97;;;4.90;99.90;;;;;;7400353;19;20340;-83
2023/02/11 09:01:14;;;;;;;26.30;16.70;;;5.00;99.90;;;;;;7389170;19;20313;-82
2023/02/11 09:03:39;;;;;;;24.08;16.95;;;4.90;99.90;;;;;;7388906;19;20432;-80
2023/02/11 09:06:06;;;;;;;27.23;16.73;;;5.00;99.90;;;;;;7392506;19;20749;-83
2023/02/11 09:08:36;;;;;;;22.42;16.23;;;5.10;99.90;;;;;;7399286;19;20328;-82
2023/02/11 09:11:02;;;;;;;26.75;16.52;;;5.00;99.90;;;;;;7393823;19;20335;-79
2023/02/11 09:13:28;;;;;;;24.83;16.58;;;5.10;99.90;;;;;;7389489;19;20341;-81
2023/02/11 09:15:55;;;;;;;24.20;16.33;;;5.10;99.90;;;;;;7392871;19;20297;-80
2023/02/11 09:18:21;;;;;;;23.38;16.20;;;5.20;99.90;;;;;;7393263;19;20388;-79
2023/02/11 09:20:46;;;;;;;23.60;16.47;;;5.20;99.90;;;;;;7392681;19;20365;-86
2023/02/11 09:23:12;;;;;;;18.27;14.60;;;5.30;99.90;;;;;;7389416;19;21069;-84
2023/02/11 09:25:39;;;;;;;26.20;15.77;;;5.20;99.90;;;;;;7391853;19;20345;-79
2023/02/11 09:28:05;;;;;;;23.17;15.83;;;5.20;99.90;;;;;;7389739;19;20313;-90
2023/02/11 09:30:31;;;;;;;23.45;15.25;;;5.30;99.90;;;;;;7390310;19;20419;-83
2023/02/11 09:32:56;;;;;;;21.75;15.57;;;5.50;99.90;;;;;;7388050;19;20328;-79
2023/02/11 09:35:22;;;;;;;22.43;15.13;;;5.50;99.90;;;;;;7388807;19;20379;-82
2023/02/11 09:37:47;;;;;;;23.83;15.27;;;5.50;99.90;;;;;;7389496;19;20356;-78
2023/02/11 09:40:14;;;;;;;21.47;15.20;;;5.50;99.90;;;;;;7388568;19;20369;-77
2023/02/11 09:43:03;;;;;;;20.52;15.23;;;5.50;99.90;;;;;;7388354;19;20340;-82
2023/02/11 09:45:28;;;;;;;21.77;15.50;;;5.50;99.90;;;;;;7388926;19;20312;-81
2023/02/11 09:48:04;;;;;;;21.67;14.70;;;5.50;99.90;;;;;;7390268;19;20861;-81
2023/02/11 09:50:36;;;;;;;23.33;14.38;;;5.50;99.90;;;;;;7390342;19;20957;-79
2023/02/11 09:53:25;;;;;;;21.92;14.57;;;5.50;99.90;;;;;;7286077;19;2005625;-78
2023/02/11 09:55:54;;;;;;;24.30;15.20;;;5.50;99.90;;;;;;7388173;19;20349;-82
2023/02/11 09:58:30;;;;;;;20.52;14.52;;;5.50;99.90;;;;;;7390396;19;20365;-80
2023/02/11 10:01:35;;;;;;;23.27;15.85;;;5.50;99.90;;;;;;7387791;19;20349;-80
2023/02/11 10:04:16;;;;;;;18.75;14.07;;;5.50;99.90;;;;;;7177380;19;2004610;-79
2023/02/11 10:06:42;;;;;;;24.17;15.45;;;5.60;99.90;;;;;;7281140;19;2018888;-80
2023/02/11 10:09:28;;;;;;;22.00;14.60;;;5.50;99.90;;;;;;7385372;19;21281;-79
2023/02/11 10:12:09;;;;;;;20.33;14.82;;;5.50;99.90;;;;;;7385789;19;20667;-80
2023/02/11 10:15:16;;;;;;;23.27;15.27;;;5.50;99.90;;;;;;7280609;19;2010665;-79
2023/02/11 10:18:00;;;;;;;18.92;14.48;;;5.40;99.90;;;;;;7282115;19;2004541;-78
2023/02/11 10:21:02;;;;;;;20.30;15.00;;;5.60;99.90;;;;;;7385849;19;20353;-82
2023/02/11 10:23:36;;;;;;;22.00;15.32;;;5.60;99.90;;;;;;7282426;19;2004279;-78
2023/02/11 10:26:02;;;;;;;22.08;15.27;;;5.60;99.90;;;;;;7283679;19;2020219;-78
2023/02/11 10:28:30;;;;;;;21.30;14.60;;;5.60;99.90;;;;;;7387377;19;20313;-78
2023/02/11 10:31:07;;;;;;;22.70;14.93;;;5.70;99.90;;;;;;7386099;19;20363;-80
2023/02/11 10:33:46;;;;;;;20.30;14.38;;;5.70;99.90;;;;;;7284623;19;2004366;-83
2023/02/11 10:36:13;;;;;;;19.27;14.68;;;5.70;99.90;;;;;;7391664;19;20865;-88
2023/02/11 10:38:38;;;;;;;22.65;15.82;;;5.70;99.90;;;;;;7400708;19;20376;-82
2023/02/11 10:41:05;;;;;;;18.97;14.47;;;5.70;99.90;;;;;;7407447;19;20344;-91
2023/02/11 10:43:31;;;;;;;20.45;13.65;;;5.70;99.90;;;;;;7409598;19;20370;-80
2023/02/11 10:45:56;;;;;;;20.17;14.00;;;5.60;99.90;;;;;;7386795;19;20771;-80
2023/02/11 10:48:44;;;;;;;19.35;14.13;;;5.60;99.90;;;;;;7384303;19;20352;-78
2023/02/11 10:51:19;;;;;;;18.45;14.57;;;5.60;99.90;;;;;;7283435;19;2004952;-76
2023/02/11 10:53:47;;;;;;;19.65;14.77;;;5.60;99.90;;;;;;7382469;19;20360;-82
2023/02/11 10:56:25;;;;;;;23.05;14.95;;;5.60;99.90;;;;;;7396504;19;20312;-86
2023/02/11 10:58:59;;;;;;;20.77;13.90;;;5.70;99.90;;;;;;7397709;19;20406;-85
2023/02/11 11:01:55;;;;;;;21.50;15.68;;;5.60;99.90;;;;;;7395597;19;20305;-91
2023/02/11 11:04:34;;;;;;;21.08;14.63;;;5.70;99.90;;;;;;7301546;19;2004362;-89
2023/02/11 11:07:16;;;;;;;19.65;14.75;;;5.70;99.90;;;;;;7403456;19;21173;-92
2023/02/11 11:10:07;;;;;;;19.45;14.80;;;5.70;99.90;;;;;;7301346;19;2004369;-92
2023/02/11 11:12:56;;;;;;;19.03;13.97;;;5.70;99.90;;;;;;7300004;19;2004256;-83
2023/02/11 11:15:26;;;;;;;17.65;13.75;;;5.70;99.90;;;;;;7393078;19;20860;-83
2023/02/11 11:18:13;;;;;;;20.42;13.25;;;5.70;99.90;;;;;;7394448;19;20320;-89
2023/02/11 11:20:54;;;;;;;18.92;13.48;;;5.70;99.90;;;;;;7295780;19;2015936;-88
2023/02/11 11:23:23;;;;;;;18.33;13.73;;;5.80;99.90;;;;;;7398393;19;20312;-82
2023/02/11 11:26:06;;;;;;;21.65;14.52;;;5.70;99.90;;;;;;7400007;19;20304;-85
2023/02/11 11:28:37;;;;;;;17.88;13.23;;;5.80;99.90;;;;;;7392926;19;20379;-80
2023/02/11 11:31:03;;;;;;;18.70;13.13;;;5.80;99.90;;;;;;7388959;19;20320;-82
2023/02/11 11:33:30;;;;;;;17.92;12.93;;;5.80;99.90;;;;;;7388339;19;20325;-81
2023/02/11 11:36:08;;;;;;;16.65;12.43;;;5.80;99.90;;;;;;7391094;19;20708;-92
2023/02/11 11:38:36;;;;;;;20.40;13.30;;;5.80;99.90;;;;;;7293899;19;2016898;-86
2023/02/11 11:41:22;;;;;;;18.00;12.60;;;5.80;99.90;;;;;;7392029;19;20315;-82
2023/02/11 11:43:55;;;;;;;18.33;13.73;;;5.80;99.90;;;;;;7392805;19;20372;-85
2023/02/11 11:46:26;;;;;;;16.33;12.85;;;5.80;99.90;;;;;;7391305;19;20319;-89
2023/02/11 11:48:55;;;;;;;19.20;12.80;;;5.80;99.90;;;;;;7393176;19;20416;-83
2023/02/11 11:51:21;;;;;;;18.98;13.73;;;5.80;99.90;;;;;;7393640;19;20334;-80
2023/02/11 11:53:59;;;;;;;19.67;13.53;;;5.70;99.90;;;;;;7387854;19;20341;-78
2023/02/11 11:56:29;;;;;;;20.00;13.07;;;5.80;99.90;;;;;;7387039;19;20320;-81
2023/02/11 11:58:55;;;;;;;20.37;13.67;;;5.80;99.90;;;;;;7383974;19;20308;-80
2023/02/11 12:01:57;;;;;;;20.65;13.32;;;5.80;99.90;;;;;;7387467;19;20408;-78
2023/02/11 12:04:39;;;;;;;19.60;13.85;;;5.80;99.90;;;;;;7288174;19;2004578;-80
2023/02/11 12:07:25;;;;;;;19.64;13.59;;;5.80;99.90;;;;;;6504722;19;10001507;-87
2023/02/11 12:10:28;;;;;;;18.20;13.43;;;5.80;99.90;;;;;;5832561;19;10001366;-83
2023/02/11 12:13:01;;;;;;;19.00;13.57;;;5.80;99.90;;;;;;7285303;19;2004217;-79
2023/02/11 12:15:34;;;;;;;18.48;13.52;;;5.80;99.90;;;;;;7388290;19;20338;-80
2023/02/11 12:18:37;;;;;;;18.35;13.90;;;5.80;99.90;;;;;;7391123;19;20320;-80
2023/02/11 12:21:18;;;;;;;17.92;12.88;;;5.80;99.90;;;;;;7181159;19;2004708;-78
2023/02/11 12:24:09;;;;;;;17.67;13.30;;;5.80;99.90;;;;;;7388320;19;20344;-80
2023/02/11 12:26:55;;;;;;;16.42;12.23;;;5.80;99.90;;;;;;7286811;19;2004870;-81
2023/02/11 12:29:29;;;;;;;19.47;13.43;;;5.80;99.90;;;;;;7389883;19;20331;-82
2023/02/11 12:32:01;;;;;;;18.08;14.13;;;5.70;99.90;;;;;;7390092;19;20319;-83
2023/02/11 12:34:38;;;;;;;20.20;15.73;;;5.70;99.90;;;;;;7388939;19;20363;-80
2023/02/11 12:37:25;;;;;;;19.60;13.88;;;5.60;99.90;;;;;;7289385;19;2004406;-79
2023/02/11 12:39:56;;;;;;;18.48;13.52;;;5.70;99.90;;;;;;7390773;19;20440;-80
2023/02/11 12:45:56;;;;;;;19.17;13.60;;;5.60;99.90;;;;;;7187756;19;2004423;-79
2023/02/11 12:48:52;;;;;;;19.17;13.83;;;5.70;99.90;;;;;;7287945;19;2004320;-81
2023/02/11 12:51:39;;;;;;;19.83;14.32;;;5.70;99.90;;;;;;7287718;19;2004294;-79
2023/02/11 12:54:27;;;;;;;18.70;14.05;;;5.70;99.90;;;;;;7281748;19;2004377;-80
2023/02/11 12:57:10;;;;;;;19.60;14.02;;;5.60;99.90;;;;;;7388628;19;20317;-79
2023/02/11 12:59:38;;;;;;;20.77;14.10;;;5.50;99.90;;;;;;7286416;19;2004691;-80
2023/02/11 13:02:22;;;;;;;19.50;14.13;;;5.40;99.90;;;;;;7385561;19;20357;-79
2023/02/11 13:04:53;;;;;;;18.00;13.77;;;5.40;99.90;;;;;;7386062;19;20348;-82
2023/02/11 13:07:26;;;;;;;19.85;14.45;;;5.50;99.90;;;;;;7387796;19;20320;-84
2023/02/11 13:10:10;;;;;;;18.73;13.88;;;5.40;99.90;;;;;;7392633;19;20364;-82
2023/02/11 13:15:24;;;;;;;20.65;14.57;;;5.30;99.90;;;;;;7388093;19;20365;-82
2023/02/11 13:18:00;;;;;;;18.33;13.70;;;5.40;99.90;;;;;;7394016;19;21026;-79
2023/02/11 13:20:37;;;;;;;20.65;14.73;;;5.40;99.90;;;;;;7399191;19;20333;-83
2023/02/11 13:23:14;;;;;;;20.53;14.20;;;5.50;99.90;;;;;;7289108;19;2004311;-86
2023/02/11 13:25:44;;;;;;;19.00;14.23;;;5.40;99.90;;;;;;7388349;19;20352;-87
2023/02/11 13:28:24;;;;;;;18.77;14.05;;;5.40;99.90;;;;;;7389269;19;20430;-81
2023/02/11 13:31:00;;;;;;;18.95;13.50;;;5.50;99.90;;;;;;7385597;19;20355;-85
2023/02/11 13:33:33;;;;;;;17.45;13.98;;;5.50;99.90;;;;;;7384068;19;20332;-78
2023/02/11 13:35:59;;;;;;;21.42;14.18;;;5.50;99.90;;;;;;7384706;19;20332;-79
2023/02/11 13:38:26;;;;;;;16.73;13.20;;;5.50;99.90;;;;;;7385908;19;20428;-77
2023/02/11 13:41:03;;;;;;;20.85;14.40;;;5.70;99.90;;;;;;7384017;19;20963;-80
2023/02/11 13:43:33;;;;;;;18.52;14.20;;;5.50;99.90;;;;;;7380773;19;20353;-83
2023/02/11 13:46:03;;;;;;;16.83;12.55;;;5.50;99.90;;;;;;7387026;19;20316;-81
2023/02/11 13:48:40;;;;;;;18.50;14.13;;;5.60;99.90;;;;;;7386935;19;20317;-84
2023/02/11 13:51:07;;;;;;;21.92;14.82;;;5.50;99.90;;;;;;7281417;19;2004392;-79
2023/02/11 13:53:48;;;;;;;18.27;13.68;;;5.60;99.90;;;;;;7385014;19;20404;-80
2023/02/11 13:56:30;;;;;;;18.73;13.45;;;5.50;99.90;;;;;;7386907;19;20898;-81
2023/02/11 13:58:57;;;;;;;21.10;14.50;;;5.60;99.90;;;;;;6089324;19;10001350;-83
2023/02/11 14:10:47;;;;;;;20.90;14.85;;;5.50;99.90;;;;;;7283383;19;2004336;-80
2023/02/11 14:13:31;;;;;;;19.57;15.40;;;5.50;99.90;;;;;;7290672;19;2004154;-92
2023/02/11 14:16:08;;;;;;;18.63;14.13;;;5.50;99.90;;;;;;7394896;19;20844;-82
2023/02/11 14:18:48;;;;;;;18.93;14.60;;;5.50;99.90;;;;;;7298494;19;2004265;-86
2023/02/11 14:21:29;;;;;;;20.65;14.88;;;5.50;99.90;;;;;;7400474;19;20341;-91
2023/02/11 14:24:00;;;;;;;20.13;14.90;;;5.50;99.90;;;;;;7391358;19;20317;-80
2023/02/11 14:26:41;;;;;;;19.70;14.55;;;5.40;99.90;;;;;;7386215;19;20408;-79
2023/02/11 14:29:37;;;;;;;19.33;13.60;;;5.50;99.90;;;;;;7271366;19;2004389;-80
2023/02/11 14:32:44;;;;;;;22.23;15.07;;;5.50;99.90;;;;;;7282101;19;2004428;-80
2023/02/11 14:35:33;;;;;;;18.90;14.52;;;5.50;99.90;;;;;;7281432;19;2004186;-79
2023/02/11 14:38:21;;;;;;;19.27;14.30;;;5.50;99.90;;;;;;7383912;19;20332;-79
2023/02/11 14:41:11;;;;;;;19.13;14.35;;;5.60;99.90;;;;;;7280774;19;2016339;-81
2023/02/11 14:43:44;;;;;;;20.88;15.07;;;5.60;99.90;;;;;;7291092;19;2004197;-87
2023/02/11 14:46:09;;;;;;;21.17;15.00;;;5.60;99.90;;;;;;7400321;19;20305;-84
2023/02/11 14:48:38;;;;;;;17.92;14.50;;;5.60;99.90;;;;;;7396637;19;20348;-87
2023/02/11 14:51:10;;;;;;;19.60;14.75;;;5.70;99.90;;;;;;7401096;19;20313;-90
2023/02/11 14:53:35;;;;;;;17.95;15.45;;;5.70;99.90;;;;;;7396828;19;20989;-82
2023/02/11 14:56:01;;;;;;;21.92;15.30;;;5.60;99.90;;;;;;7399046;19;20822;-83
2023/02/11 14:58:30;;;;;;;19.87;15.00;;;5.80;99.90;;;;;;7383079;19;20326;-84
2023/02/11 15:01:05;;;;;;;21.38;15.25;;;5.60;99.90;;;;;;7384514;19;20335;-81
2023/02/11 15:03:41;;;;;;;19.90;14.77;;;5.60;99.90;;;;;;7380934;19;20300;-81
2023/02/11 15:06:36;;;;;;;17.90;14.45;;;5.70;99.90;;;;;;7278685;19;2004419;-76
2023/02/11 15:09:12;;;;;;;22.63;16.05;;;5.60;99.90;;;;;;7380043;19;21282;-78
2023/02/11 15:11:38;;;;;;;20.70;15.50;;;5.60;99.90;;;;;;7276921;19;2009629;-76
2023/02/11 15:14:17;;;;;;;18.65;14.27;;;5.70;99.90;;;;;;7375027;19;20324;-77
2023/02/11 15:16:43;;;;;;;19.05;14.48;;;5.70;99.90;;;;;;7276498;19;2004372;-77
2023/02/11 15:19:35;;;;;;;17.75;14.07;;;5.70;99.90;;;;;;7379882;19;20407;-75
2023/02/11 15:22:06;;;;;;;18.80;15.05;;;5.70;99.90;;;;;;7379699;19;20309;-79
2023/02/11 15:24:34;;;;;;;19.33;14.18;;;5.70;99.90;;;;;;7380271;19;20345;-78
2023/02/11 15:27:13;;;;;;;20.92;14.27;;;5.70;99.90;;;;;;7380520;19;20309;-78
2023/02/11 15:29:48;;;;;;;19.27;14.23;;;5.70;99.90;;;;;;7281648;19;2004586;-77
2023/02/11 15:32:18;;;;;;;20.07;15.67;;;5.70;99.90;;;;;;7388616;19;20329;-78
2023/02/11 15:34:44;;;;;;;17.25;14.20;;;5.70;99.90;;;;;;7379040;19;20349;-81
2023/02/11 15:37:15;;;;;;;21.33;14.17;;;5.70;99.90;;;;;;7381391;19;20372;-79
2023/02/11 15:39:41;;;;;;;20.25;14.60;;;5.70;99.90;;;;;;7380440;19;20356;-78
2023/02/11 15:42:25;;;;;;;16.77;13.63;;;5.80;99.90;;;;;;7379612;19;20877;-79
2023/02/11 15:45:37;;;;;;;18.92;13.95;;;5.70;99.90;;;;;;7379798;19;20381;-79
2023/02/11 15:48:08;;;;;;;21.17;14.07;;;5.70;99.90;;;;;;7276417;19;2015851;-83
2023/02/11 15:50:39;;;;;;;21.00;14.68;;;5.70;99.90;;;;;;7381501;19;20349;-83
2023/02/11 15:53:14;;;;;;;17.80;13.98;;;5.70;99.90;;;;;;7378915;19;20359;-78
2023/02/11 15:55:40;;;;;;;20.00;13.80;;;5.70;99.90;;;;;;7277317;19;2004396;-82
2023/02/11 15:58:13;;;;;;;19.02;14.46;;;5.70;99.90;;;;;;6633609;19;10000779;-78
2023/02/11 16:00:48;;;;;;;18.75;13.20;;;5.80;99.90;;;;;;7124062;19;5001559;-82
2023/02/11 16:03:24;;;;;;;16.23;13.57;;;5.70;99.90;;;;;;7381162;19;20387;-89
2023/02/11 16:05:52;;;;;;;20.55;14.88;;;5.70;99.90;;;;;;5986481;19;10001208;-83
2023/02/11 16:08:18;;;;;;;17.23;13.68;;;5.70;99.90;;;;;;7395459;19;20348;-89
2023/02/11 16:11:07;;;;;;;17.92;13.65;;;5.80;99.90;;;;;;7394948;19;20340;-82
2023/02/11 16:13:42;;;;;;;18.85;14.35;;;5.70;99.90;;;;;;7396428;19;20345;-88
2023/02/11 16:16:17;;;;;;;20.27;15.57;;;5.70;99.90;;;;;;7292386;19;2004142;-81
2023/02/11 16:18:44;;;;;;;18.52;14.80;;;5.70;99.90;;;;;;7392721;19;20360;-81
2023/02/11 16:21:16;;;;;;;18.27;14.00;;;5.60;99.90;;;;;;7392643;19;20344;-83
2023/02/11 16:23:42;;;;;;;19.23;14.63;;;5.70;99.90;;;;;;7381146;19;20393;-78
2023/02/11 16:26:23;;;;;;;20.77;14.80;;;5.70;99.90;;;;;;7383559;19;20317;-80
2023/02/11 16:28:49;;;;;;;18.77;15.07;;;5.70;99.90;;;;;;7393869;19;20347;-82
2023/02/11 16:31:15;;;;;;;18.05;13.38;;;5.70;99.90;;;;;;7392635;19;20332;-87
2023/02/11 16:33:40;;;;;;;21.30;14.32;;;5.70;99.90;;;;;;7392385;19;20336;-85
2023/02/11 16:36:11;;;;;;;18.50;13.67;;;5.70;99.90;;;;;;7394843;19;20433;-92
2023/02/11 16:38:37;;;;;;;19.42;14.70;;;5.80;99.90;;;;;;7395948;19;20349;-90
2023/02/11 16:41:02;;;;;;;19.03;14.13;;;5.70;99.90;;;;;;7396046;19;20960;-86
2023/02/11 16:43:28;;;;;;;17.85;14.00;;;5.80;99.90;;;;;;7390654;19;20316;-77
2023/02/11 16:45:53;;;;;;;19.67;15.17;;;5.80;99.90;;;;;;7379255;19;20340;-82
2023/02/11 16:48:19;;;;;;;18.98;14.60;;;5.80;99.90;;;;;;7387237;19;20369;-82
2023/02/11 16:50:47;;;;;;;18.47;14.47;;;5.80;99.90;;;;;;7382272;19;20357;-79
2023/02/11 16:53:16;;;;;;;17.00;13.90;;;5.80;99.90;;;;;;7382384;19;20333;-87
2023/02/11 16:55:41;;;;;;;18.43;14.07;;;5.80;99.90;;;;;;7386323;19;20826;-79
2023/02/11 16:58:07;;;;;;;19.38;15.43;;;5.80;99.90;;;;;;7385651;19;20339;-79
2023/02/11 17:00:34;;;;;;;19.97;14.53;;;5.80;99.90;;;;;;7387426;19;20378;-78
2023/02/11 17:03:00;;;;;;;20.27;14.67;;;5.80;99.90;;;;;;7386337;19;20321;-79
2023/02/11 17:05:26;;;;;;;17.85;13.20;;;5.80;99.90;;;;;;7389608;19;20317;-79
2023/02/11 17:07:52;;;;;;;18.80;14.02;;;5.80;99.90;;;;;;7390496;19;20363;-80
2023/02/11 17:10:20;;;;;;;16.63;12.97;;;5.90;99.90;;;;;;7390571;19;20985;-83
2023/02/11 17:12:46;;;;;;;17.80;13.90;;;5.90;99.90;;;;;;7393491;19;20324;-83
2023/02/11 17:15:13;;;;;;;18.20;14.10;;;5.80;99.90;;;;;;7379611;19;20358;-87
2023/02/11 17:17:39;;;;;;;20.27;14.73;;;5.90;99.90;;;;;;7394197;19;20341;-79
2023/02/11 17:20:05;;;;;;;18.38;13.48;;;5.90;99.90;;;;;;7397403;19;20353;-78
2023/02/11 17:22:31;;;;;;;15.68;12.48;;;5.90;99.90;;;;;;7400093;19;20345;-83
2023/02/11 17:24:58;;;;;;;18.88;12.80;;;5.90;99.90;;;;;;7398276;19;20348;-86
2023/02/11 17:27:24;;;;;;;16.95;12.18;;;5.90;99.90;;;;;;7407399;19;20325;-91
2023/02/11 17:29:49;;;;;;;18.67;14.00;;;5.80;99.90;;;;;;7408685;19;20333;-87
2023/02/11 17:32:15;;;;;;;18.53;15.07;;;5.80;99.90;;;;;;7403814;19;20744;-80
2023/02/11 17:34:40;;;;;;;18.70;13.98;;;5.80;99.90;;;;;;7374104;19;21177;-79
2023/02/11 17:37:09;;;;;;;17.30;13.50;;;5.80;99.90;;;;;;7400367;19;20376;-81
2023/02/11 17:39:35;;;;;;;19.83;14.60;;;5.90;99.90;;;;;;7388979;19;20348;-78
2023/02/11 17:42:01;;;;;;;18.63;13.05;;;5.80;99.90;;;;;;7395325;19;20304;-90
2023/02/11 17:44:28;;;;;;;15.45;12.13;;;5.80;99.90;;;;;;7402564;19;20408;-88
2023/02/11 17:46:53;;;;;;;19.63;13.87;;;5.80;99.90;;;;;;7396926;19;20305;-81
2023/02/11 17:49:28;;;;;;;18.17;13.65;;;5.90;99.90;;;;;;7388038;19;20351;-78
2023/02/11 17:51:54;;;;;;;13.27;11.90;;;5.80;99.90;;;;;;7385681;19;20305;-80
2023/02/11 17:54:20;;;;;;;19.85;14.80;;;5.80;99.90;;;;;;7392921;19;20313;-90
2023/02/11 17:56:46;;;;;;;17.70;14.05;;;5.90;99.90;;;;;;7389677;19;20998;-79
2023/02/11 17:59:12;;;;;;;14.88;12.18;;;5.80;99.90;;;;;;7388779;19;20328;-79
2023/02/11 18:01:38;;;;;;;16.75;13.30;;;5.90;99.90;;;;;;7368797;19;20858;-81
2023/02/11 18:04:05;;;;;;;16.52;13.55;;;5.90;99.90;;;;;;7398384;19;20304;-88
2023/02/11 18:06:32;;;;;;;13.82;11.20;;;5.90;99.90;;;;;;7405922;19;20326;-92
2023/02/11 18:09:00;;;;;;;15.57;12.07;;;5.90;99.90;;;;;;7404336;19;20305;-90
2023/02/11 18:11:26;;;;;;;15.50;11.55;;;6.00;99.90;;;;;;7409648;19;20717;-87
2023/02/11 18:13:53;;;;;;;13.95;11.55;;;5.90;99.90;;;;;;7404875;19;20356;-87
2023/02/11 18:16:22;;;;;;;13.57;10.88;;;6.00;99.90;;;;;;7406274;19;20341;-88
2023/02/11 18:18:48;;;;;;;14.20;11.20;;;5.90;99.90;;;;;;7408424;19;20353;-92
2023/02/11 18:21:15;;;;;;;16.15;11.73;;;6.10;99.90;;;;;;7405898;19;21057;-84
2023/02/11 18:23:42;;;;;;;16.08;11.90;;;6.00;99.90;;;;;;6092126;19;10000907;-81
2023/02/11 18:26:08;;;;;;;15.38;12.38;;;6.00;99.90;;;;;;7401617;19;20313;-83
2023/02/11 18:28:34;;;;;;;15.15;12.13;;;6.00;99.90;;;;;;7406042;19;20372;-86
2023/02/11 18:30:59;;;;;;;13.43;11.07;;;6.00;99.90;;;;;;7405255;19;20315;-86
2023/02/11 18:33:25;;;;;;;13.20;11.80;;;5.90;99.90;;;;;;7401207;19;20320;-84
2023/02/11 18:35:53;;;;;;;13.60;11.37;;;5.90;99.90;;;;;;7388432;19;20313;-79
2023/02/11 18:38:19;;;;;;;13.63;11.30;;;5.90;99.90;;;;;;7394506;19;20997;-83
2023/02/11 18:40:46;;;;;;;16.55;12.20;;;5.90;99.90;;;;;;7405041;19;20344;-87
2023/02/11 18:43:17;;;;;;;14.82;12.02;;;5.90;99.90;;;;;;7401714;19;20334;-84
2023/02/11 18:45:44;;;;;;;15.43;11.68;;;5.90;99.90;;;;;;7401502;19;20335;-82
2023/02/11 18:48:10;;;;;;;13.68;11.73;;;5.90;99.90;;;;;;7404481;19;20413;-83
2023/02/11 18:50:36;;;;;;;16.77;13.13;;;5.90;99.90;;;;;;7406824;19;20343;-81
2023/02/11 18:53:02;;;;;;;17.05;12.63;;;5.90;99.90;;;;;;7386462;19;20320;-78
2023/02/11 18:55:41;;;;;;;12.85;10.32;;;5.90;99.90;;;;;;7386796;19;20625;-78
2023/02/11 18:58:21;;;;;;;16.25;13.07;;;5.80;99.90;;;;;;7285358;19;2004234;-78
2023/02/11 19:00:47;;;;;;;16.77;13.10;;;5.90;99.90;;;;;;7384781;19;20342;-80
2023/02/11 19:03:14;;;;;;;14.43;12.23;;;5.80;99.90;;;;;;7385618;19;20725;-82
2023/02/11 19:05:41;;;;;;;16.85;11.93;;;5.80;99.90;;;;;;7391230;19;20778;-89
2023/02/11 19:08:07;;;;;;;15.00;11.45;;;5.80;99.90;;;;;;7391143;19;20337;-80
2023/02/11 19:10:32;;;;;;;12.97;11.30;;;5.80;99.90;;;;;;7389053;19;20309;-81
2023/02/11 19:12:58;;;;;;;15.40;11.70;;;5.90;99.90;;;;;;7388188;19;20297;-86
2023/02/11 19:15:24;;;;;;;15.05;10.88;;;5.80;99.90;;;;;;7385532;19;20375;-78
2023/02/11 19:17:50;;;;;;;13.23;11.18;;;5.80;99.90;;;;;;7386521;19;20313;-80
2023/02/11 19:20:17;;;;;;;13.18;10.55;;;5.80;99.90;;;;;;7385882;19;20312;-80
2023/02/11 19:25:52;;;;;;;12.77;10.55;;;5.90;99.90;;;;;;7395154;19;20379;-77
2023/02/11 19:28:18;;;;;;;13.45;10.30;;;5.90;99.90;;;;;;7382054;19;20316;-79
2023/02/11 19:30:44;;;;;;;13.83;10.60;;;5.90;99.90;;;;;;7378266;19;20344;-78
2023/02/11 19:33:09;;;;;;;13.30;10.88;;;5.80;99.90;;;;;;7374967;19;20879;-78
2023/02/11 19:35:36;;;;;;;14.27;11.20;;;5.90;99.90;;;;;;7377907;19;20344;-78
2023/02/11 19:38:03;;;;;;;14.10;10.98;;;5.90;99.90;;;;;;7379903;19;20332;-81
2023/02/11 19:40:28;;;;;;;16.08;11.63;;;5.80;99.90;;;;;;7378575;19;20411;-78
2023/02/11 19:42:54;;;;;;;14.30;12.05;;;5.80;99.90;;;;;;7385513;19;20329;-82
2023/02/11 19:45:25;;;;;;;13.82;11.93;;;5.80;99.90;;;;;;7389348;19;20364;-80
2023/02/11 19:47:55;;;;;;;13.27;11.30;;;5.80;99.90;;;;;;7397832;19;20359;-88
2023/02/11 19:50:21;;;;;;;16.60;13.25;;;5.70;99.90;;;;;;7393134;19;20356;-80
2023/02/11 19:52:47;;;;;;;14.82;12.18;;;5.80;99.90;;;;;;7386110;19;20339;-85
2023/02/11 19:55:22;;;;;;;15.50;12.37;;;5.70;99.90;;;;;;7386112;19;20837;-83
2023/02/11 19:57:47;;;;;;;13.30;11.90;;;5.80;99.90;;;;;;7385325;19;20372;-77
2023/02/11 20:00:14;;;;;;;15.80;12.37;;;5.80;99.90;;;;;;7384551;19;20838;-80
2023/02/11 20:02:39;;;;;;;14.20;11.73;;;5.80;99.90;;;;;;7385691;19;20336;-79
2023/02/11 20:05:05;;;;;;;13.05;10.82;;;5.80;99.90;;;;;;7388922;19;20309;-80
2023/02/11 20:07:33;;;;;;;12.30;10.52;;;5.80;99.90;;;;;;7388306;19;20360;-82
2023/02/11 20:09:59;;;;;;;12.30;10.23;;;5.80;99.90;;;;;;7389891;19;20325;-77
2023/02/11 20:12:25;;;;;;;14.00;11.20;;;5.90;99.90;;;;;;7392423;19;20333;-80
2023/02/11 20:14:50;;;;;;;11.50;10.02;;;5.90;99.90;;;;;;7399020;19;20336;-82
2023/02/11 20:17:16;;;;;;;13.07;10.47;;;5.80;99.90;;;;;;7402457;19;20317;-82
2023/02/11 20:19:43;;;;;;;14.02;10.52;;;5.90;99.90;;;;;;7385613;19;20671;-80
2023/02/11 20:22:08;;;;;;;11.50;10.05;;;5.90;99.90;;;;;;7391434;19;20326;-82
2023/02/11 20:24:34;;;;;;;12.25;9.88;;;5.90;99.90;;;;;;7397972;19;20925;-80
2023/02/11 20:27:02;;;;;;;13.30;10.30;;;5.90;99.90;;;;;;7393788;19;20324;-78
2023/02/11 20:29:30;;;;;;;12.93;10.45;;;5.90;99.90;;;;;;7391264;19;20319;-83
2023/02/11 20:31:57;;;;;;;10.52;9.00;;;5.80;99.90;;;;;;7393630;19;20321;-83
2023/02/11 20:34:34;;;;;;;10.15;9.05;;;5.90;99.90;;;;;;7390137;19;20327;-83
2023/02/11 20:37:01;;;;;;;11.23;9.45;;;5.90;99.90;;;;;;7373154;19;20320;-77
2023/02/11 20:39:26;;;;;;;10.40;9.13;;;5.90;99.90;;;;;;7373796;19;20316;-81
2023/02/11 20:41:52;;;;;;;10.20;9.13;;;5.90;99.90;;;;;;7396162;19;20359;-81
2023/02/11 20:44:20;;;;;;;10.97;9.07;;;5.90;99.90;;;;;;7387144;19;20360;-77
2023/02/11 20:46:46;;;;;;;11.10;8.85;;;5.90;99.90;;;;;;7385181;19;20333;-79
2023/02/11 20:49:13;;;;;;;9.63;8.63;;;5.90;99.90;;;;;;7386613;19;20313;-81
2023/02/11 20:51:38;;;;;;;9.85;8.70;;;5.80;99.90;;;;;;7383777;19;20407;-78
2023/02/11 20:54:05;;;;;;;10.30;9.07;;;5.90;99.90;;;;;;7385252;19;20319;-77
2023/02/11 20:56:32;;;;;;;10.27;9.10;;;5.90;99.90;;;;;;7386320;19;20875;-78
2023/02/11 20:58:58;;;;;;;11.48;9.60;;;5.90;99.90;;;;;;7383955;19;20305;-78
2023/02/11 21:01:29;;;;;;;9.95;8.93;;;5.90;99.90;;;;;;7384106;19;20339;-77
2023/02/11 21:03:57;;;;;;;10.02;8.55;;;5.90;99.90;;;;;;7375302;19;20422;-77
2023/02/11 21:06:24;;;;;;;10.68;9.25;;;5.90;99.90;;;;;;7383476;19;20620;-77
2023/02/11 21:08:50;;;;;;;10.77;8.90;;;5.90;99.90;;;;;;7386349;19;20344;-81
2023/02/11 21:11:19;;;;;;;10.38;9.13;;;5.90;99.90;;;;;;7385275;19;20696;-81
2023/02/11 21:13:45;;;;;;;10.40;8.93;;;6.00;99.90;;;;;;7382158;19;20336;-78
2023/02/11 21:16:13;;;;;;;9.43;8.20;;;6.00;99.90;;;;;;7383920;19;20317;-80
2023/02/11 21:18:39;;;;;;;11.50;9.57;;;5.90;99.90;;;;;;7383347;19;20374;-78